Current Weather

Gobernador Castello

Gobernador Castello, Argentina (SAVV)

Report from: Thursday, February 2, 2023 4:47 PM -03
Current time: Sunday, February 5, 2023 1:08 AM -03

Nearby weather
Weather history
Weather forecast

Temperature23.0°C (73.4°F)
Dew point19.0°C (66.2°F)
Winds 10 kts (5.1 m/s, 11.5 mph) Vrb
Winds variableWinds variable from North-Northeast (30°) to Northwest (310°)
Visibility6.2 mi. (10 km)
Clouds Few clouds 3,000 ft. (914 m)
Few clouds with cumulonimbus 4,000 ft. (1,219 m)
Altimeter30.00 in.Hg (1016 mB)
Relative humidity78 %
Density altitude1,136 ft. (346 m)
Remarks Special weather observation
Flight conditions Visual Meteorological Conditions
Raw dataSPECI SAVV 021947Z 34010KT 310V030 9999 FEW030 FEW040CB 23/19 Q1016
An unhandled exception has occurred. See browser dev tools for details. Reload 🗙